createdAt,value
2023-07-03T00:00:29.058Z,56.25
2023-07-03T00:03:31.519Z,56.15
2023-07-03T00:06:33.997Z,56.23
2023-07-03T00:09:36.366Z,56.43
2023-07-03T00:12:38.853Z,56.22
2023-07-03T00:15:41.195Z,56.22
2023-07-03T00:18:43.635Z,56.51
2023-07-03T00:21:46.047Z,56.45
2023-07-03T00:24:48.550Z,56.28
2023-07-03T00:27:51.150Z,56.45
2023-07-03T00:30:53.586Z,56.61
2023-07-03T00:33:55.973Z,56.20
2023-07-03T00:36:58.387Z,56.48
2023-07-03T00:40:00.950Z,56.50
2023-07-03T00:43:05.282Z,56.40
2023-07-03T00:46:11.922Z,56.29
2023-07-03T00:49:14.786Z,56.71
2023-07-03T00:52:17.341Z,56.68
2023-07-03T00:55:20.722Z,56.81
2023-07-03T00:58:23.279Z,56.73
2023-07-03T01:01:28.683Z,56.49
2023-07-03T01:04:46.487Z,56.53
2023-07-03T01:07:51.829Z,56.91
2023-07-03T01:10:55.683Z,56.69
2023-07-03T01:14:00.693Z,56.61
2023-07-03T01:17:03.643Z,56.59
2023-07-03T01:20:07.435Z,56.92
2023-07-03T01:23:36.180Z,56.64
2023-07-03T01:26:43.730Z,56.83
2023-07-03T01:29:55.015Z,56.76
2023-07-03T01:32:58.704Z,56.67
2023-07-03T01:36:02.095Z,56.74
2023-07-03T01:39:08.012Z,57.03
2023-07-03T01:42:11.648Z,56.94
2023-07-03T01:45:14.665Z,56.72
2023-07-03T01:48:18.254Z,56.59
2023-07-03T01:51:33.345Z,57.06
2023-07-03T01:54:41.666Z,57.04
2023-07-03T01:57:58.034Z,56.91
2023-07-03T02:01:08.057Z,56.91
2023-07-03T02:04:20.158Z,56.73
2023-07-03T02:07:22.888Z,56.88
2023-07-03T02:10:25.395Z,56.99
2023-07-03T02:13:28.703Z,56.90
2023-07-03T02:16:34.590Z,57.18
2023-07-03T02:19:37.614Z,57.00
2023-07-03T02:22:40.815Z,57.01
2023-07-03T02:25:49.914Z,57.17
2023-07-03T02:28:52.579Z,57.23
2023-07-03T02:31:55.022Z,56.86
2023-07-03T02:34:57.510Z,56.91
2023-07-03T02:37:59.904Z,57.45
2023-07-03T02:41:04.189Z,57.46
2023-07-03T02:44:06.586Z,57.24
2023-07-03T02:47:10.484Z,57.44
2023-07-03T02:50:13.981Z,57.58
2023-07-03T02:53:16.671Z,57.57
2023-07-03T02:56:19.166Z,57.33
2023-07-03T02:59:24.173Z,57.60
2023-07-03T03:02:27.230Z,57.56
2023-07-03T03:05:29.680Z,57.49
2023-07-03T03:08:32.179Z,57.55
2023-07-03T03:11:34.650Z,57.78
2023-07-03T03:14:38.057Z,57.69
2023-07-03T03:17:40.685Z,57.65
2023-07-03T03:20:46.911Z,57.55
2023-07-03T03:23:49.458Z,57.50
2023-07-03T03:26:51.918Z,57.64
2023-07-03T03:29:54.467Z,57.92
2023-07-03T03:32:57.024Z,57.94
2023-07-03T03:35:59.586Z,57.81
2023-07-03T03:39:02.049Z,57.95
2023-07-03T03:42:06.058Z,58.02
2023-07-03T03:45:08.693Z,58.04
2023-07-03T03:48:11.347Z,57.92
2023-07-03T03:51:15.208Z,57.91
2023-07-03T03:54:17.589Z,57.86
2023-07-03T03:57:19.996Z,57.73
2023-07-03T04:00:23.052Z,57.60
2023-07-03T04:03:25.703Z,57.87
2023-07-03T04:06:28.341Z,57.93
2023-07-03T04:09:30.942Z,57.79
2023-07-03T04:12:33.623Z,57.75
2023-07-03T04:15:38.426Z,57.63
2023-07-03T04:18:41.987Z,57.79
2023-07-03T04:21:44.431Z,57.63
2023-07-03T04:24:46.909Z,57.70
2023-07-03T04:27:49.375Z,57.64
2023-07-03T04:30:51.813Z,57.38
2023-07-03T04:33:54.235Z,57.37
2023-07-03T04:36:56.704Z,57.25
2023-07-03T04:39:59.153Z,57.18
2023-07-03T04:43:01.843Z,57.14
2023-07-03T04:46:04.735Z,57.10
2023-07-03T04:49:07.193Z,56.90
2023-07-03T04:52:09.547Z,57.00
2023-07-03T04:55:13.185Z,56.77
2023-07-03T04:58:16.125Z,56.71
2023-07-03T05:01:19.086Z,56.45
2023-07-03T05:04:21.649Z,55.94
2023-07-03T05:07:24.141Z,55.88
2023-07-03T05:10:27.033Z,55.81
2023-07-03T05:13:29.403Z,55.36
2023-07-03T05:16:32.151Z,55.32
2023-07-03T05:19:34.868Z,54.99
2023-07-03T05:22:42.113Z,54.20
2023-07-03T05:25:46.641Z,54.10
2023-07-03T05:28:49.057Z,53.66
2023-07-03T05:31:51.462Z,53.37
2023-07-03T05:34:53.880Z,53.55
2023-07-03T05:37:57.362Z,54.16
2023-07-03T05:40:59.898Z,54.61
2023-07-03T05:44:02.385Z,54.37
2023-07-03T05:47:07.589Z,54.17
2023-07-03T05:50:10.510Z,51.44
2023-07-03T05:53:13.293Z,50.31
2023-07-03T05:56:15.772Z,49.78
2023-07-03T05:59:18.200Z,49.25
2023-07-03T06:02:20.673Z,49.34
2023-07-03T06:05:23.180Z,49.14
2023-07-03T06:08:25.740Z,48.73
2023-07-03T06:11:28.135Z,47.92
2023-07-03T06:14:31.236Z,47.78
2023-07-03T06:17:33.705Z,46.94
2023-07-03T06:20:36.239Z,47.17
2023-07-03T06:23:38.594Z,47.02
2023-07-03T06:26:41.627Z,46.65
2023-07-03T06:29:44.140Z,46.82
2023-07-03T06:32:46.946Z,46.25
2023-07-03T06:35:51.107Z,45.92
2023-07-03T06:38:58.183Z,45.19
2023-07-03T06:42:00.891Z,44.48
2023-07-03T06:45:03.785Z,44.25
2023-07-03T06:48:06.394Z,44.20
2023-07-03T06:51:10.000Z,43.64
2023-07-03T06:54:12.384Z,43.37
2023-07-03T06:57:14.859Z,42.04
2023-07-03T07:00:17.976Z,42.15
2023-07-03T07:03:20.628Z,42.30
2023-07-03T07:06:28.613Z,41.32
2023-07-03T07:09:31.056Z,41.24
2023-07-03T07:12:33.475Z,40.36
2023-07-03T07:15:39.770Z,40.08
2023-07-03T07:18:42.682Z,40.41
2023-07-03T07:21:45.339Z,39.88
2023-07-03T07:24:47.832Z,39.67
2023-07-03T07:27:50.242Z,39.64
2023-07-03T07:30:52.944Z,39.33
2023-07-03T07:33:56.473Z,39.23
2023-07-03T07:36:59.121Z,39.20
2023-07-03T07:40:01.559Z,39.91
2023-07-03T07:43:04.726Z,38.73
2023-07-03T07:46:07.342Z,38.02
2023-07-03T07:49:10.564Z,36.75
2023-07-03T07:52:13.086Z,35.48
2023-07-03T07:55:15.544Z,35.89
2023-07-03T07:58:17.960Z,34.45
2023-07-03T08:01:20.904Z,35.27
2023-07-03T08:04:23.489Z,33.52
2023-07-03T08:07:25.982Z,33.33
2023-07-03T08:10:28.377Z,32.99
2023-07-03T08:13:32.113Z,33.21
2023-07-03T08:16:34.592Z,32.60
2023-07-03T08:19:37.516Z,33.36
2023-07-03T08:22:40.405Z,33.57
2023-07-03T08:25:43.113Z,33.51
2023-07-03T08:28:45.526Z,34.29
2023-07-03T08:31:47.937Z,34.06
2023-07-03T08:37:56.711Z,34.27
2023-07-03T08:41:00.659Z,35.11
2023-07-03T08:44:03.065Z,34.90
2023-07-03T08:47:12.044Z,35.02
2023-07-03T08:50:27.871Z,33.59
2023-07-03T08:53:43.760Z,33.85
2023-07-03T08:56:47.184Z,34.32
2023-07-03T08:59:49.534Z,35.53
2023-07-03T09:03:07.710Z,34.88
2023-07-03T09:06:51.535Z,34.80
2023-07-03T09:10:12.722Z,35.06
2023-07-03T09:13:40.310Z,35.09
2023-07-03T09:16:43.652Z,36.16
2023-07-03T09:19:48.666Z,35.13
2023-07-03T09:22:58.024Z,35.52
2023-07-03T09:26:06.653Z,34.76
2023-07-03T09:29:11.270Z,35.31
2023-07-03T09:32:27.809Z,35.45
2023-07-03T09:35:38.341Z,35.28
2023-07-03T09:38:40.934Z,36.13
2023-07-03T09:41:43.423Z,36.18
2023-07-03T09:44:45.911Z,36.27
2023-07-03T09:47:59.965Z,36.51
2023-07-03T09:51:20.791Z,36.13
2023-07-03T09:54:27.539Z,36.51
2023-07-03T09:57:30.038Z,37.03
2023-07-03T10:00:32.470Z,35.00
2023-07-03T10:03:36.535Z,34.29
2023-07-03T10:06:40.842Z,34.89
2023-07-03T10:12:59.531Z,35.19
2023-07-03T10:16:02.758Z,35.82
2023-07-03T10:19:05.381Z,36.07
2023-07-03T10:22:08.211Z,35.97
2023-07-03T10:25:18.632Z,36.21
2023-07-03T10:28:28.248Z,35.42
2023-07-03T10:31:41.752Z,35.56
2023-07-03T10:35:01.588Z,36.01
2023-07-03T10:38:17.576Z,35.52
2023-07-03T10:41:24.563Z,35.74
2023-07-03T10:44:31.126Z,35.75
2023-07-03T10:47:39.372Z,36.21
2023-07-03T10:50:50.583Z,36.38
2023-07-03T10:54:01.968Z,35.84
2023-07-03T10:57:07.387Z,35.73
2023-07-03T11:00:14.892Z,35.64
2023-07-03T11:03:43.746Z,35.25
2023-07-03T11:06:49.704Z,35.39
2023-07-03T11:10:10.172Z,35.06
2023-07-03T11:13:53.133Z,35.45
2023-07-03T11:17:07.642Z,35.43
2023-07-03T11:20:18.611Z,36.31
2023-07-03T11:23:31.738Z,35.90
2023-07-03T11:30:04.806Z,36.37
2023-07-03T11:33:07.534Z,36.16
2023-07-03T11:36:49.529Z,36.29
2023-07-03T11:39:58.205Z,36.30
2023-07-03T11:46:22.352Z,36.66
2023-07-03T11:49:27.264Z,36.59
2023-07-03T11:52:35.940Z,36.74
2023-07-03T11:55:40.720Z,36.34
2023-07-03T11:58:44.548Z,36.25
2023-07-03T12:01:47.139Z,36.77
2023-07-03T12:04:51.029Z,37.00
2023-07-03T12:07:53.470Z,37.17
2023-07-03T12:10:56.872Z,36.94
2023-07-03T12:13:59.655Z,37.67
2023-07-03T12:17:02.266Z,37.80
2023-07-03T12:20:13.799Z,37.81
2023-07-03T12:23:35.981Z,37.99
2023-07-03T12:26:51.247Z,38.52
2023-07-03T12:29:54.031Z,38.84
2023-07-03T12:32:58.400Z,39.01
2023-07-03T12:36:00.952Z,39.03
2023-07-03T12:39:16.108Z,39.27
2023-07-03T12:42:24.471Z,39.21
2023-07-03T12:45:29.399Z,39.60
2023-07-03T12:48:31.777Z,40.03
2023-07-03T12:51:39.699Z,40.18
2023-07-03T12:54:42.140Z,40.28
2023-07-03T12:57:45.974Z,40.53
2023-07-03T13:00:59.540Z,40.43
2023-07-03T13:04:02.708Z,40.36
2023-07-03T13:07:05.739Z,41.27
2023-07-03T13:10:12.220Z,41.00
2023-07-03T13:13:23.644Z,40.84
2023-07-03T13:16:31.943Z,40.98
2023-07-03T13:19:36.281Z,41.21
2023-07-03T13:22:38.883Z,41.27
2023-07-03T13:25:53.991Z,41.31
2023-07-03T13:29:02.525Z,41.25
2023-07-03T13:32:19.557Z,41.69
2023-07-03T13:35:49.650Z,41.84
2023-07-03T13:39:27.428Z,42.12
2023-07-03T13:42:32.034Z,42.12
2023-07-03T13:45:34.499Z,41.77
2023-07-03T13:48:36.894Z,42.26
2023-07-03T13:51:40.364Z,41.85
2023-07-03T13:54:42.807Z,42.08
2023-07-03T13:57:45.301Z,42.24
2023-07-03T14:00:47.766Z,42.63
2023-07-03T14:03:50.283Z,42.35
2023-07-03T14:06:52.862Z,42.58
2023-07-03T14:09:56.580Z,42.23
2023-07-03T14:12:58.939Z,42.37
2023-07-03T14:16:01.359Z,42.39
2023-07-03T14:19:06.936Z,42.88
2023-07-03T14:22:10.138Z,42.71
2023-07-03T14:25:14.926Z,42.83
2023-07-03T14:28:17.623Z,42.81
2023-07-03T14:31:20.013Z,42.90
2023-07-03T14:34:22.408Z,42.96
2023-07-03T14:37:24.786Z,42.86
2023-07-03T14:40:27.232Z,43.09
2023-07-03T14:43:29.657Z,42.98
2023-07-03T14:46:32.167Z,43.24
2023-07-03T14:49:34.595Z,43.01
2023-07-03T14:52:37.993Z,43.19
2023-07-03T14:55:40.363Z,43.25
2023-07-03T14:58:42.807Z,43.18
2023-07-03T15:01:45.444Z,43.21
2023-07-03T15:04:48.044Z,43.35
2023-07-03T15:07:53.146Z,43.33
2023-07-03T15:10:55.945Z,43.71
2023-07-03T15:13:58.405Z,43.81
2023-07-03T15:17:00.871Z,43.49
2023-07-03T15:20:05.408Z,43.64
2023-07-03T15:23:07.861Z,43.87
2023-07-03T15:26:10.961Z,43.65
2023-07-03T15:29:13.780Z,43.63
2023-07-03T15:32:16.318Z,43.79
2023-07-03T15:35:18.762Z,43.84
2023-07-03T15:38:21.167Z,44.12
2023-07-03T15:41:23.663Z,44.14
2023-07-03T15:44:26.752Z,43.82
2023-07-03T15:47:29.116Z,43.86
2023-07-03T15:50:31.537Z,44.33
2023-07-03T15:53:35.252Z,43.80
2023-07-03T15:56:37.670Z,44.22
2023-07-03T15:59:40.458Z,44.10
2023-07-03T16:02:43.050Z,44.36
2023-07-03T16:05:45.431Z,44.05
2023-07-03T16:08:50.992Z,44.27
2023-07-03T16:11:54.134Z,44.32
2023-07-03T16:14:56.558Z,44.49
2023-07-03T16:17:58.924Z,44.40
2023-07-03T16:21:03.387Z,44.57
2023-07-03T16:24:08.147Z,44.54
2023-07-03T16:27:10.547Z,44.25
2023-07-03T16:30:12.951Z,44.75
2023-07-03T16:33:15.358Z,44.90
2023-07-03T16:36:23.426Z,44.77
2023-07-03T16:39:25.895Z,44.63
2023-07-03T16:42:28.445Z,44.51
2023-07-03T16:45:30.960Z,45.09
2023-07-03T16:48:34.246Z,44.54
2023-07-03T16:51:36.845Z,44.71
2023-07-03T16:54:39.261Z,45.03
2023-07-03T16:57:41.604Z,45.25
2023-07-03T17:00:44.088Z,45.20
2023-07-03T17:03:47.403Z,44.98
2023-07-03T17:06:49.824Z,44.90
2023-07-03T17:09:52.295Z,45.21
2023-07-03T17:12:54.729Z,44.97
2023-07-03T17:15:57.294Z,45.13
2023-07-03T17:18:59.710Z,45.31
2023-07-03T17:22:02.216Z,44.92
2023-07-03T17:25:04.939Z,45.50
2023-07-03T17:28:07.690Z,45.45
2023-07-03T17:31:10.262Z,45.21
2023-07-03T17:34:13.998Z,45.49
2023-07-03T17:37:16.422Z,45.16
2023-07-03T17:40:18.803Z,45.60
2023-07-03T17:43:24.288Z,45.75
2023-07-03T17:46:26.847Z,45.46
2023-07-03T17:49:29.384Z,45.67
2023-07-03T17:52:32.090Z,45.19
2023-07-03T17:55:34.522Z,45.78
2023-07-03T17:58:36.919Z,45.78
2023-07-03T18:01:39.386Z,45.80
2023-07-03T18:04:42.077Z,45.57
2023-07-03T18:07:44.467Z,46.03
2023-07-03T18:10:46.856Z,46.02
2023-07-03T18:13:49.395Z,45.65
2023-07-03T18:16:52.197Z,46.06
2023-07-03T18:19:54.762Z,46.16
2023-07-03T18:22:57.271Z,45.92
2023-07-03T18:25:59.658Z,46.04
2023-07-03T18:29:02.042Z,45.98
2023-07-03T18:32:04.661Z,46.00
2023-07-03T18:35:07.683Z,46.06
2023-07-03T18:38:10.087Z,45.78
2023-07-03T18:41:12.829Z,46.12
2023-07-03T18:44:15.223Z,46.17
2023-07-03T18:47:17.766Z,46.30
2023-07-03T18:50:20.306Z,46.09
2023-07-03T18:53:22.746Z,46.22
2023-07-03T18:56:25.146Z,46.35
2023-07-03T18:59:28.094Z,46.62
2023-07-03T19:02:31.552Z,46.55
2023-07-03T19:05:33.955Z,46.75
2023-07-03T19:08:37.677Z,46.69
2023-07-03T19:11:43.917Z,46.56
2023-07-03T19:14:46.359Z,46.51
2023-07-03T19:17:48.788Z,46.62
2023-07-03T19:20:51.258Z,46.66
2023-07-03T19:23:53.634Z,46.80
2023-07-03T19:26:56.075Z,46.97
2023-07-03T19:29:58.480Z,46.71
2023-07-03T19:33:00.989Z,46.65
2023-07-03T19:36:03.561Z,46.87
2023-07-03T19:39:06.237Z,46.76
2023-07-03T19:42:08.803Z,47.08
2023-07-03T19:45:11.427Z,46.83
2023-07-03T19:48:14.275Z,46.75
2023-07-03T19:51:16.766Z,47.34
2023-07-03T19:54:19.154Z,47.10
2023-07-03T19:57:21.734Z,47.11
2023-07-03T20:00:26.805Z,47.20
2023-07-03T20:03:29.815Z,47.00
2023-07-03T20:06:32.355Z,47.50
2023-07-03T20:09:34.797Z,47.27
2023-07-03T20:12:37.198Z,47.30
2023-07-03T20:15:43.802Z,47.64
2023-07-03T20:18:53.667Z,47.27
2023-07-03T20:21:56.158Z,47.55
2023-07-03T20:24:58.581Z,47.47
2023-07-03T20:28:01.806Z,47.90
2023-07-03T20:31:07.785Z,47.56
2023-07-03T20:34:10.233Z,47.47
2023-07-03T20:37:12.715Z,47.87
2023-07-03T20:40:15.423Z,47.96
2023-07-03T20:43:17.795Z,47.93
2023-07-03T20:46:22.956Z,47.67
2023-07-03T20:49:26.601Z,47.83
2023-07-03T20:52:30.864Z,47.97
2023-07-03T20:55:44.387Z,48.06
2023-07-03T20:58:48.506Z,48.34
2023-07-03T21:01:51.221Z,48.08
2023-07-03T21:04:53.687Z,48.39
2023-07-03T21:07:56.112Z,48.41
2023-07-03T21:10:59.605Z,48.58
2023-07-03T21:14:05.542Z,48.43
2023-07-03T21:17:08.160Z,48.25
2023-07-03T21:20:11.275Z,48.59
2023-07-03T21:23:13.608Z,48.63
2023-07-03T21:26:19.197Z,48.51
2023-07-03T21:29:21.504Z,48.59
2023-07-03T21:32:23.828Z,48.62
2023-07-03T21:35:26.393Z,48.69
2023-07-03T21:38:28.737Z,48.68
2023-07-03T21:41:33.327Z,48.93
2023-07-03T21:44:35.714Z,48.90
2023-07-03T21:47:38.094Z,48.75
2023-07-03T21:50:40.455Z,49.41
2023-07-03T21:53:43.637Z,48.93
2023-07-03T21:56:46.717Z,49.47
2023-07-03T21:59:50.329Z,49.19
2023-07-03T22:02:52.766Z,49.40
2023-07-03T22:05:57.941Z,49.31
2023-07-03T22:09:00.660Z,49.29
2023-07-03T22:12:06.102Z,49.58
2023-07-03T22:15:09.147Z,49.42
2023-07-03T22:18:11.602Z,49.51
2023-07-03T22:21:15.583Z,49.76
2023-07-03T22:24:18.032Z,49.98
2023-07-03T22:27:20.385Z,49.70
2023-07-03T22:30:22.900Z,49.93
2023-07-03T22:33:25.502Z,49.71
2023-07-03T22:36:27.851Z,50.02
2023-07-03T22:39:30.267Z,49.65
2023-07-03T22:42:32.611Z,49.99
2023-07-03T22:45:35.239Z,50.04
2023-07-03T22:48:41.175Z,49.87
2023-07-03T22:51:43.695Z,50.18
2023-07-03T22:54:49.321Z,50.04
2023-07-03T22:57:51.806Z,50.21
2023-07-03T23:00:54.293Z,50.20
2023-07-03T23:03:56.736Z,50.50
2023-07-03T23:06:59.117Z,50.36
2023-07-03T23:10:08.174Z,50.08
2023-07-03T23:13:10.637Z,50.11
2023-07-03T23:16:13.173Z,50.12
2023-07-03T23:19:18.038Z,50.42
2023-07-03T23:22:21.353Z,50.24
2023-07-03T23:25:24.375Z,50.43
2023-07-03T23:28:32.712Z,50.11
2023-07-03T23:31:35.627Z,50.47
2023-07-03T23:34:38.090Z,50.60
2023-07-03T23:37:42.440Z,50.39
2023-07-03T23:40:45.942Z,50.31
2023-07-03T23:43:49.930Z,50.45
2023-07-03T23:46:52.966Z,50.56
2023-07-03T23:49:55.586Z,50.70
2023-07-03T23:52:58.233Z,51.03
2023-07-03T23:56:03.379Z,50.79
2023-07-03T23:59:05.736Z,50.92
